Marsa Alam, Egypt
Current Conditions -  °F | °C
As of 3:00 PM on Tuesday 21 Oct 2014 (Local Time) from HEMA Reporting Station
Clear Clear  
Wind Chill: 81°   Ceiling: Unl
Heat Index: 81°   Visibility: 6mi
Dew Point: 59°   Wind: 12mph
Humidity: 48%   Direction: 50°NE
Pressure: 29.91"   Gusts: NA
Location:  25.55°N, 34.58°E
Report Text: HEMA 211300Z 05010KT CAVOK 27/15 Q1013 NOSIG
Loading
Personal Weather Stations






























Interactive Weather Map
Tropical Storm Tracking
New forecast layout! Learn more

10-Day Weather Forecast

Advertisements
Track Severe Weather on mobile